sensor_id;sensor_type;location;lat;lon;timestamp;P1;durP1;ratioP1;P2;durP2;ratioP2
32613;SDS011;19031;51.400;6.770;2023-04-25T00:01:36;4.75;;;1.75;;
32613;SDS011;19031;51.400;6.770;2023-04-25T00:04:02;3.85;;;1.48;;
32613;SDS011;19031;51.400;6.770;2023-04-25T00:06:30;4.55;;;1.92;;
32613;SDS011;19031;51.400;6.770;2023-04-25T00:08:57;7.18;;;1.98;;
32613;SDS011;19031;51.400;6.770;2023-04-25T00:11:23;13.60;;;2.03;;
32613;SDS011;19031;51.400;6.770;2023-04-25T00:13:49;6.18;;;1.38;;
32613;SDS011;19031;51.400;6.770;2023-04-25T00:16:19;4.07;;;1.63;;
32613;SDS011;19031;51.400;6.770;2023-04-25T00:18:44;3.53;;;1.55;;
32613;SDS011;19031;51.400;6.770;2023-04-25T00:21:16;5.57;;;1.70;;
32613;SDS011;19031;51.400;6.770;2023-04-25T00:23:43;7.55;;;2.20;;
32613;SDS011;19031;51.400;6.770;2023-04-25T00:26:10;10.73;;;2.45;;
32613;SDS011;19031;51.400;6.770;2023-04-25T00:28:36;4.30;;;1.88;;
32613;SDS011;19031;51.400;6.770;2023-04-25T00:31:02;10.40;;;1.83;;
32613;SDS011;19031;51.400;6.770;2023-04-25T00:33:28;4.55;;;1.73;;
32613;SDS011;19031;51.400;6.770;2023-04-25T00:35:55;4.70;;;2.10;;
32613;SDS011;19031;51.400;6.770;2023-04-25T00:38:20;5.60;;;2.22;;
32613;SDS011;19031;51.400;6.770;2023-04-25T00:40:46;9.63;;;2.15;;
32613;SDS011;19031;51.400;6.770;2023-04-25T00:43:12;10.40;;;1.67;;
32613;SDS011;19031;51.400;6.770;2023-04-25T00:45:38;5.25;;;2.08;;
32613;SDS011;19031;51.400;6.770;2023-04-25T00:48:04;9.77;;;2.10;;
32613;SDS011;19031;51.400;6.770;2023-04-25T00:50:30;8.10;;;1.88;;
32613;SDS011;19031;51.400;6.770;2023-04-25T00:52:58;3.65;;;1.70;;
32613;SDS011;19031;51.400;6.770;2023-04-25T00:55:25;8.73;;;3.20;;
32613;SDS011;19031;51.400;6.770;2023-04-25T00:57:50;6.68;;;1.90;;
32613;SDS011;19031;51.400;6.770;2023-04-25T01:00:16;21.48;;;3.58;;
32613;SDS011;19031;51.400;6.770;2023-04-25T01:02:42;7.35;;;2.70;;
32613;SDS011;19031;51.400;6.770;2023-04-25T01:05:09;8.18;;;1.92;;
32613;SDS011;19031;51.400;6.770;2023-04-25T01:07:36;15.27;;;3.03;;
32613;SDS011;19031;51.400;6.770;2023-04-25T01:10:02;2.97;;;1.90;;
32613;SDS011;19031;51.400;6.770;2023-04-25T01:12:29;10.15;;;2.55;;
32613;SDS011;19031;51.400;6.770;2023-04-25T01:14:55;6.05;;;2.50;;
32613;SDS011;19031;51.400;6.770;2023-04-25T01:17:21;10.60;;;2.28;;
32613;SDS011;19031;51.400;6.770;2023-04-25T01:19:47;6.15;;;2.20;;
32613;SDS011;19031;51.400;6.770;2023-04-25T01:22:13;5.30;;;1.55;;
32613;SDS011;19031;51.400;6.770;2023-04-25T01:24:39;7.22;;;1.58;;
32613;SDS011;19031;51.400;6.770;2023-04-25T01:27:06;11.20;;;2.10;;
32613;SDS011;19031;51.400;6.770;2023-04-25T01:29:32;7.30;;;1.60;;
32613;SDS011;19031;51.400;6.770;2023-04-25T01:31:59;5.60;;;2.22;;
32613;SDS011;19031;51.400;6.770;2023-04-25T01:34:26;5.30;;;1.90;;
32613;SDS011;19031;51.400;6.770;2023-04-25T01:36:52;7.68;;;1.58;;
32613;SDS011;19031;51.400;6.770;2023-04-25T01:39:18;4.97;;;2.10;;
32613;SDS011;19031;51.400;6.770;2023-04-25T01:41:45;9.73;;;2.42;;
32613;SDS011;19031;51.400;6.770;2023-04-25T01:44:11;9.25;;;1.70;;
32613;SDS011;19031;51.400;6.770;2023-04-25T01:46:37;6.90;;;2.08;;
32613;SDS011;19031;51.400;6.770;2023-04-25T01:49:03;5.90;;;2.10;;
32613;SDS011;19031;51.400;6.770;2023-04-25T01:51:29;3.35;;;1.60;;
32613;SDS011;19031;51.400;6.770;2023-04-25T01:53:55;6.72;;;2.22;;
32613;SDS011;19031;51.400;6.770;2023-04-25T01:56:22;4.10;;;2.25;;
32613;SDS011;19031;51.400;6.770;2023-04-25T01:58:47;3.47;;;1.55;;
32613;SDS011;19031;51.400;6.770;2023-04-25T02:01:13;6.93;;;1.67;;
32613;SDS011;19031;51.400;6.770;2023-04-25T02:03:39;4.57;;;2.20;;
32613;SDS011;19031;51.400;6.770;2023-04-25T02:06:05;5.75;;;2.35;;
32613;SDS011;19031;51.400;6.770;2023-04-25T02:08:30;6.32;;;1.65;;
32613;SDS011;19031;51.400;6.770;2023-04-25T02:10:56;3.83;;;1.45;;
32613;SDS011;19031;51.400;6.770;2023-04-25T02:13:22;9.82;;;2.10;;
32613;SDS011;19031;51.400;6.770;2023-04-25T02:15:48;5.10;;;2.42;;
32613;SDS011;19031;51.400;6.770;2023-04-25T02:18:14;4.10;;;1.92;;
32613;SDS011;19031;51.400;6.770;2023-04-25T02:20:42;4.55;;;1.83;;
32613;SDS011;19031;51.400;6.770;2023-04-25T02:23:08;8.55;;;2.00;;
32613;SDS011;19031;51.400;6.770;2023-04-25T02:25:33;7.35;;;2.88;;
32613;SDS011;19031;51.400;6.770;2023-04-25T02:27:59;7.15;;;1.92;;
32613;SDS011;19031;51.400;6.770;2023-04-25T02:30:24;8.20;;;2.40;;
32613;SDS011;19031;51.400;6.770;2023-04-25T02:32:53;5.93;;;1.95;;
32613;SDS011;19031;51.400;6.770;2023-04-25T02:35:19;5.38;;;1.55;;
32613;SDS011;19031;51.400;6.770;2023-04-25T02:37:44;4.55;;;2.03;;
32613;SDS011;19031;51.400;6.770;2023-04-25T02:40:13;4.85;;;1.67;;
32613;SDS011;19031;51.400;6.770;2023-04-25T02:42:38;5.68;;;1.35;;
32613;SDS011;19031;51.400;6.770;2023-04-25T02:45:04;4.25;;;1.55;;
32613;SDS011;19031;51.400;6.770;2023-04-25T02:47:30;5.57;;;1.88;;
32613;SDS011;19031;51.400;6.770;2023-04-25T02:49:56;7.68;;;1.83;;
32613;SDS011;19031;51.400;6.770;2023-04-25T02:52:21;4.63;;;2.03;;
32613;SDS011;19031;51.400;6.770;2023-04-25T02:54:47;6.78;;;2.03;;
32613;SDS011;19031;51.400;6.770;2023-04-25T02:57:12;7.05;;;2.38;;
32613;SDS011;19031;51.400;6.770;2023-04-25T02:59:38;7.78;;;2.15;;
32613;SDS011;19031;51.400;6.770;2023-04-25T03:02:04;8.85;;;1.92;;
32613;SDS011;19031;51.400;6.770;2023-04-25T03:04:29;8.35;;;2.58;;
32613;SDS011;19031;51.400;6.770;2023-04-25T03:06:55;3.00;;;1.45;;
32613;SDS011;19031;51.400;6.770;2023-04-25T03:09:20;6.28;;;1.75;;
32613;SDS011;19031;51.400;6.770;2023-04-25T03:11:46;7.22;;;1.98;;
32613;SDS011;19031;51.400;6.770;2023-04-25T03:14:12;9.50;;;2.10;;
32613;SDS011;19031;51.400;6.770;2023-04-25T03:16:38;3.92;;;1.67;;
32613;SDS011;19031;51.400;6.770;2023-04-25T03:19:04;6.32;;;1.90;;
32613;SDS011;19031;51.400;6.770;2023-04-25T03:21:33;8.02;;;2.05;;
32613;SDS011;19031;51.400;6.770;2023-04-25T03:24:02;5.95;;;1.67;;
32613;SDS011;19031;51.400;6.770;2023-04-25T03:26:29;5.38;;;1.92;;
32613;SDS011;19031;51.400;6.770;2023-04-25T03:28:55;7.60;;;2.33;;
32613;SDS011;19031;51.400;6.770;2023-04-25T03:31:20;3.47;;;1.60;;
32613;SDS011;19031;51.400;6.770;2023-04-25T03:33:47;4.75;;;2.10;;
32613;SDS011;19031;51.400;6.770;2023-04-25T03:36:13;7.07;;;1.80;;
32613;SDS011;19031;51.400;6.770;2023-04-25T03:38:38;5.93;;;1.50;;
32613;SDS011;19031;51.400;6.770;2023-04-25T03:41:06;9.80;;;2.08;;
32613;SDS011;19031;51.400;6.770;2023-04-25T03:43:32;8.38;;;2.70;;
32613;SDS011;19031;51.400;6.770;2023-04-25T03:45:57;12.07;;;2.30;;
32613;SDS011;19031;51.400;6.770;2023-04-25T03:48:23;8.68;;;2.40;;
32613;SDS011;19031;51.400;6.770;2023-04-25T03:50:50;7.28;;;2.50;;
32613;SDS011;19031;51.400;6.770;2023-04-25T03:53:17;10.98;;;1.70;;
32613;SDS011;19031;51.400;6.770;2023-04-25T03:55:42;8.23;;;2.05;;
32613;SDS011;19031;51.400;6.770;2023-04-25T03:58:08;2.97;;;1.60;;
32613;SDS011;19031;51.400;6.770;2023-04-25T04:00:34;11.73;;;2.85;;
32613;SDS011;19031;51.400;6.770;2023-04-25T04:03:00;17.27;;;2.33;;
32613;SDS011;19031;51.400;6.770;2023-04-25T04:05:26;9.70;;;2.30;;
32613;SDS011;19031;51.400;6.770;2023-04-25T04:07:52;10.82;;;2.53;;
32613;SDS011;19031;51.400;6.770;2023-04-25T04:10:18;5.70;;;2.05;;
32613;SDS011;19031;51.400;6.770;2023-04-25T04:12:43;7.75;;;2.00;;
32613;SDS011;19031;51.400;6.770;2023-04-25T04:15:09;6.47;;;2.17;;
32613;SDS011;19031;51.400;6.770;2023-04-25T04:17:35;11.77;;;2.03;;
32613;SDS011;19031;51.400;6.770;2023-04-25T04:20:01;7.30;;;1.67;;
32613;SDS011;19031;51.400;6.770;2023-04-25T04:22:28;4.95;;;1.70;;
32613;SDS011;19031;51.400;6.770;2023-04-25T04:24:54;4.07;;;2.20;;
32613;SDS011;19031;51.400;6.770;2023-04-25T04:27:21;4.15;;;1.75;;
32613;SDS011;19031;51.400;6.770;2023-04-25T04:29:47;7.05;;;1.75;;
32613;SDS011;19031;51.400;6.770;2023-04-25T04:32:14;7.13;;;2.03;;
32613;SDS011;19031;51.400;6.770;2023-04-25T04:34:40;3.03;;;1.58;;
32613;SDS011;19031;51.400;6.770;2023-04-25T04:37:09;9.45;;;2.63;;
32613;SDS011;19031;51.400;6.770;2023-04-25T04:39:35;9.05;;;2.35;;
32613;SDS011;19031;51.400;6.770;2023-04-25T04:42:01;5.63;;;1.70;;
32613;SDS011;19031;51.400;6.770;2023-04-25T04:44:28;8.65;;;1.90;;
32613;SDS011;19031;51.400;6.770;2023-04-25T04:46:54;4.57;;;1.33;;
32613;SDS011;19031;51.400;6.770;2023-04-25T04:49:20;5.47;;;1.45;;
32613;SDS011;19031;51.400;6.770;2023-04-25T04:51:46;5.82;;;1.80;;
32613;SDS011;19031;51.400;6.770;2023-04-25T04:54:12;17.90;;;2.75;;
32613;SDS011;19031;51.400;6.770;2023-04-25T04:56:38;11.05;;;2.13;;
32613;SDS011;19031;51.400;6.770;2023-04-25T04:59:03;8.02;;;1.95;;
32613;SDS011;19031;51.400;6.770;2023-04-25T05:01:29;9.27;;;2.17;;
32613;SDS011;19031;51.400;6.770;2023-04-25T05:03:55;9.32;;;2.20;;
32613;SDS011;19031;51.400;6.770;2023-04-25T05:06:25;4.63;;;1.90;;
32613;SDS011;19031;51.400;6.770;2023-04-25T05:08:53;7.78;;;1.75;;
32613;SDS011;19031;51.400;6.770;2023-04-25T05:11:19;5.70;;;2.08;;
32613;SDS011;19031;51.400;6.770;2023-04-25T05:13:48;6.32;;;2.15;;
32613;SDS011;19031;51.400;6.770;2023-04-25T05:16:14;10.38;;;2.30;;
32613;SDS011;19031;51.400;6.770;2023-04-25T05:18:40;12.73;;;2.22;;
32613;SDS011;19031;51.400;6.770;2023-04-25T05:21:07;13.20;;;2.72;;
32613;SDS011;19031;51.400;6.770;2023-04-25T05:23:33;7.95;;;2.08;;
32613;SDS011;19031;51.400;6.770;2023-04-25T05:25:58;12.48;;;3.17;;
32613;SDS011;19031;51.400;6.770;2023-04-25T05:28:24;8.38;;;2.50;;
32613;SDS011;19031;51.400;6.770;2023-04-25T05:30:50;10.00;;;2.22;;
32613;SDS011;19031;51.400;6.770;2023-04-25T05:33:19;5.75;;;2.10;;
32613;SDS011;19031;51.400;6.770;2023-04-25T05:35:45;11.25;;;2.60;;
32613;SDS011;19031;51.400;6.770;2023-04-25T05:38:11;7.78;;;2.13;;
32613;SDS011;19031;51.400;6.770;2023-04-25T05:40:36;11.57;;;2.67;;
32613;SDS011;19031;51.400;6.770;2023-04-25T05:43:02;11.30;;;1.85;;
32613;SDS011;19031;51.400;6.770;2023-04-25T05:45:28;4.80;;;2.08;;
32613;SDS011;19031;51.400;6.770;2023-04-25T05:47:53;4.68;;;1.75;;
32613;SDS011;19031;51.400;6.770;2023-04-25T05:50:19;12.32;;;2.25;;
32613;SDS011;19031;51.400;6.770;2023-04-25T05:52:44;5.65;;;2.13;;
32613;SDS011;19031;51.400;6.770;2023-04-25T05:55:10;4.97;;;1.77;;
32613;SDS011;19031;51.400;6.770;2023-04-25T05:57:38;6.43;;;2.50;;
32613;SDS011;19031;51.400;6.770;2023-04-25T06:00:06;8.68;;;1.77;;
32613;SDS011;19031;51.400;6.770;2023-04-25T06:02:34;4.70;;;1.70;;
32613;SDS011;19031;51.400;6.770;2023-04-25T06:05:00;5.65;;;2.40;;
32613;SDS011;19031;51.400;6.770;2023-04-25T06:07:28;3.35;;;1.67;;
32613;SDS011;19031;51.400;6.770;2023-04-25T06:09:54;6.88;;;1.77;;
32613;SDS011;19031;51.400;6.770;2023-04-25T06:12:20;5.22;;;2.35;;
32613;SDS011;19031;51.400;6.770;2023-04-25T06:14:46;8.63;;;2.00;;
32613;SDS011;19031;51.400;6.770;2023-04-25T06:17:11;5.57;;;1.73;;
32613;SDS011;19031;51.400;6.770;2023-04-25T06:19:37;8.05;;;1.75;;
32613;SDS011;19031;51.400;6.770;2023-04-25T06:22:02;6.32;;;2.53;;
32613;SDS011;19031;51.400;6.770;2023-04-25T06:24:28;11.45;;;2.13;;
32613;SDS011;19031;51.400;6.770;2023-04-25T06:26:54;5.03;;;1.40;;
32613;SDS011;19031;51.400;6.770;2023-04-25T06:29:20;3.88;;;1.77;;
32613;SDS011;19031;51.400;6.770;2023-04-25T06:31:46;11.88;;;2.17;;
32613;SDS011;19031;51.400;6.770;2023-04-25T06:34:12;4.22;;;1.90;;
32613;SDS011;19031;51.400;6.770;2023-04-25T06:36:37;7.72;;;2.20;;
32613;SDS011;19031;51.400;6.770;2023-04-25T06:39:03;20.30;;;2.50;;
32613;SDS011;19031;51.400;6.770;2023-04-25T06:41:29;7.20;;;2.17;;
32613;SDS011;19031;51.400;6.770;2023-04-25T06:43:54;10.18;;;2.55;;
32613;SDS011;19031;51.400;6.770;2023-04-25T06:46:20;16.02;;;3.63;;
32613;SDS011;19031;51.400;6.770;2023-04-25T06:48:45;8.52;;;2.10;;
32613;SDS011;19031;51.400;6.770;2023-04-25T06:51:14;4.65;;;1.67;;
32613;SDS011;19031;51.400;6.770;2023-04-25T06:53:40;7.18;;;2.17;;
32613;SDS011;19031;51.400;6.770;2023-04-25T06:56:05;13.82;;;2.65;;
32613;SDS011;19031;51.400;6.770;2023-04-25T06:58:31;5.55;;;1.67;;
32613;SDS011;19031;51.400;6.770;2023-04-25T07:00:57;9.00;;;2.28;;
32613;SDS011;19031;51.400;6.770;2023-04-25T07:03:22;5.63;;;1.67;;
32613;SDS011;19031;51.400;6.770;2023-04-25T07:05:48;8.80;;;2.30;;
32613;SDS011;19031;51.400;6.770;2023-04-25T07:08:15;5.00;;;1.52;;
32613;SDS011;19031;51.400;6.770;2023-04-25T07:10:40;7.93;;;1.70;;
32613;SDS011;19031;51.400;6.770;2023-04-25T07:13:06;8.35;;;2.47;;
32613;SDS011;19031;51.400;6.770;2023-04-25T07:15:37;12.93;;;2.97;;
32613;SDS011;19031;51.400;6.770;2023-04-25T07:18:03;9.80;;;3.90;;
32613;SDS011;19031;51.400;6.770;2023-04-25T07:20:38;9.55;;;3.53;;
32613;SDS011;19031;51.400;6.770;2023-04-25T07:23:03;20.13;;;5.53;;
32613;SDS011;19031;51.400;6.770;2023-04-25T07:25:29;11.10;;;4.47;;
32613;SDS011;19031;51.400;6.770;2023-04-25T07:27:55;11.43;;;2.65;;
32613;SDS011;19031;51.400;6.770;2023-04-25T07:30:21;5.75;;;2.20;;
32613;SDS011;19031;51.400;6.770;2023-04-25T07:32:50;13.13;;;2.45;;
32613;SDS011;19031;51.400;6.770;2023-04-25T07:35:16;10.05;;;2.38;;
32613;SDS011;19031;51.400;6.770;2023-04-25T07:37:42;6.55;;;1.80;;
32613;SDS011;19031;51.400;6.770;2023-04-25T07:40:10;4.32;;;1.92;;
32613;SDS011;19031;51.400;6.770;2023-04-25T07:42:36;5.78;;;1.50;;
32613;SDS011;19031;51.400;6.770;2023-04-25T07:45:07;9.90;;;2.35;;
32613;SDS011;19031;51.400;6.770;2023-04-25T07:47:34;9.00;;;1.70;;
32613;SDS011;19031;51.400;6.770;2023-04-25T07:50:00;4.68;;;1.38;;
32613;SDS011;19031;51.400;6.770;2023-04-25T07:52:26;11.68;;;2.00;;
32613;SDS011;19031;51.400;6.770;2023-04-25T07:54:51;7.50;;;2.20;;
32613;SDS011;19031;51.400;6.770;2023-04-25T07:57:17;10.05;;;2.72;;
32613;SDS011;19031;51.400;6.770;2023-04-25T07:59:44;17.73;;;2.30;;
32613;SDS011;19031;51.400;6.770;2023-04-25T08:02:10;10.60;;;2.80;;
32613;SDS011;19031;51.400;6.770;2023-04-25T08:04:35;5.43;;;1.30;;
32613;SDS011;19031;51.400;6.770;2023-04-25T08:07:01;6.63;;;2.00;;
32613;SDS011;19031;51.400;6.770;2023-04-25T08:09:27;6.03;;;1.63;;
32613;SDS011;19031;51.400;6.770;2023-04-25T08:11:52;7.07;;;1.55;;
32613;SDS011;19031;51.400;6.770;2023-04-25T08:14:18;17.45;;;1.55;;
32613;SDS011;19031;51.400;6.770;2023-04-25T08:16:43;11.63;;;1.58;;
32613;SDS011;19031;51.400;6.770;2023-04-25T08:19:09;4.35;;;1.05;;
32613;SDS011;19031;51.400;6.770;2023-04-25T08:21:36;7.63;;;1.40;;
32613;SDS011;19031;51.400;6.770;2023-04-25T08:24:01;5.38;;;1.35;;
32613;SDS011;19031;51.400;6.770;2023-04-25T08:26:28;6.05;;;1.60;;
32613;SDS011;19031;51.400;6.770;2023-04-25T08:28:54;5.97;;;1.50;;
32613;SDS011;19031;51.400;6.770;2023-04-25T08:31:19;5.28;;;2.15;;
32613;SDS011;19031;51.400;6.770;2023-04-25T08:33:45;10.23;;;1.38;;
32613;SDS011;19031;51.400;6.770;2023-04-25T08:36:11;10.02;;;1.48;;
32613;SDS011;19031;51.400;6.770;2023-04-25T08:38:37;5.28;;;1.30;;
32613;SDS011;19031;51.400;6.770;2023-04-25T08:41:02;6.88;;;1.17;;
32613;SDS011;19031;51.400;6.770;2023-04-25T08:43:30;7.35;;;1.20;;
32613;SDS011;19031;51.400;6.770;2023-04-25T08:45:59;3.42;;;0.75;;
32613;SDS011;19031;51.400;6.770;2023-04-25T08:48:26;4.43;;;1.10;;
32613;SDS011;19031;51.400;6.770;2023-04-25T08:51:08;10.90;;;0.90;;
32613;SDS011;19031;51.400;6.770;2023-04-25T08:53:40;3.83;;;1.75;;
32613;SDS011;19031;51.400;6.770;2023-04-25T08:56:07;3.03;;;1.25;;
32613;SDS011;19031;51.400;6.770;2023-04-25T08:58:35;5.90;;;0.88;;
32613;SDS011;19031;51.400;6.770;2023-04-25T09:01:01;7.60;;;1.05;;
32613;SDS011;19031;51.400;6.770;2023-04-25T09:03:28;6.28;;;1.20;;
32613;SDS011;19031;51.400;6.770;2023-04-25T09:05:54;3.72;;;0.55;;
32613;SDS011;19031;51.400;6.770;2023-04-25T09:08:20;7.03;;;1.13;;
32613;SDS011;19031;51.400;6.770;2023-04-25T09:10:46;2.15;;;0.77;;
32613;SDS011;19031;51.400;6.770;2023-04-25T09:13:12;1.55;;;0.68;;
32613;SDS011;19031;51.400;6.770;2023-04-25T09:16:00;3.83;;;1.42;;
32613;SDS011;19031;51.400;6.770;2023-04-25T09:18:26;2.53;;;0.60;;
32613;SDS011;19031;51.400;6.770;2023-04-25T09:20:58;3.72;;;0.57;;
32613;SDS011;19031;51.400;6.770;2023-04-25T09:23:31;3.92;;;0.77;;
32613;SDS011;19031;51.400;6.770;2023-04-25T09:26:09;7.10;;;1.23;;
32613;SDS011;19031;51.400;6.770;2023-04-25T09:28:38;3.17;;;0.70;;
32613;SDS011;19031;51.400;6.770;2023-04-25T09:31:09;6.03;;;0.90;;
32613;SDS011;19031;51.400;6.770;2023-04-25T09:33:36;4.60;;;0.80;;
32613;SDS011;19031;51.400;6.770;2023-04-25T09:36:03;4.63;;;1.02;;
32613;SDS011;19031;51.400;6.770;2023-04-25T09:38:39;4.85;;;0.68;;
32613;SDS011;19031;51.400;6.770;2023-04-25T09:41:07;5.88;;;0.68;;
32613;SDS011;19031;51.400;6.770;2023-04-25T09:43:34;2.08;;;0.30;;
32613;SDS011;19031;51.400;6.770;2023-04-25T09:46:09;2.88;;;0.70;;
32613;SDS011;19031;51.400;6.770;2023-04-25T09:48:36;7.95;;;2.10;;
32613;SDS011;19031;51.400;6.770;2023-04-25T09:53:54;2.28;;;0.70;;
32613;SDS011;19031;51.400;6.770;2023-04-25T09:56:19;2.88;;;0.63;;
32613;SDS011;19031;51.400;6.770;2023-04-25T09:58:47;1.60;;;0.43;;
32613;SDS011;19031;51.400;6.770;2023-04-25T10:01:15;3.95;;;0.63;;
32613;SDS011;19031;51.400;6.770;2023-04-25T10:03:41;2.83;;;0.68;;
32613;SDS011;19031;51.400;6.770;2023-04-25T10:06:14;4.10;;;0.80;;
32613;SDS011;19031;51.400;6.770;2023-04-25T10:08:44;1.58;;;0.57;;
32613;SDS011;19031;51.400;6.770;2023-04-25T10:11:10;3.38;;;0.70;;
32613;SDS011;19031;51.400;6.770;2023-04-25T10:13:40;1.70;;;0.57;;
32613;SDS011;19031;51.400;6.770;2023-04-25T10:16:07;0.75;;;0.38;;
32613;SDS011;19031;51.400;6.770;2023-04-25T10:18:33;0.88;;;0.47;;
32613;SDS011;19031;51.400;6.770;2023-04-25T10:21:02;5.25;;;0.80;;
32613;SDS011;19031;51.400;6.770;2023-04-25T10:23:30;6.55;;;0.88;;
32613;SDS011;19031;51.400;6.770;2023-04-25T10:25:56;4.38;;;1.48;;
32613;SDS011;19031;51.400;6.770;2023-04-25T10:28:26;3.58;;;0.93;;
32613;SDS011;19031;51.400;6.770;2023-04-25T10:31:03;1.73;;;0.80;;
32613;SDS011;19031;51.400;6.770;2023-04-25T10:33:36;5.80;;;0.93;;
32613;SDS011;19031;51.400;6.770;2023-04-25T10:36:13;4.63;;;0.98;;
32613;SDS011;19031;51.400;6.770;2023-04-25T10:38:49;3.30;;;0.50;;
32613;SDS011;19031;51.400;6.770;2023-04-25T10:41:17;4.07;;;0.52;;
32613;SDS011;19031;51.400;6.770;2023-04-25T10:43:44;2.45;;;0.88;;
32613;SDS011;19031;51.400;6.770;2023-04-25T10:48:48;2.60;;;0.80;;
32613;SDS011;19031;51.400;6.770;2023-04-25T10:53:56;1.25;;;0.52;;
32613;SDS011;19031;51.400;6.770;2023-04-25T10:56:30;3.28;;;0.55;;
32613;SDS011;19031;51.400;6.770;2023-04-25T10:59:11;3.35;;;0.70;;
32613;SDS011;19031;51.400;6.770;2023-04-25T11:01:49;3.55;;;1.02;;
32613;SDS011;19031;51.400;6.770;2023-04-25T11:04:21;1.10;;;0.77;;
32613;SDS011;19031;51.400;6.770;2023-04-25T11:07:00;7.82;;;1.17;;
32613;SDS011;19031;51.400;6.770;2023-04-25T11:09:33;5.80;;;1.10;;
32613;SDS011;19031;51.400;6.770;2023-04-25T11:11:59;5.40;;;0.90;;
32613;SDS011;19031;51.400;6.770;2023-04-25T11:14:25;3.08;;;1.40;;
32613;SDS011;19031;51.400;6.770;2023-04-25T11:16:55;8.18;;;1.40;;
32613;SDS011;19031;51.400;6.770;2023-04-25T11:19:26;4.13;;;1.48;;
32613;SDS011;19031;51.400;6.770;2023-04-25T11:21:58;4.38;;;1.08;;
32613;SDS011;19031;51.400;6.770;2023-04-25T11:24:27;5.68;;;1.23;;
32613;SDS011;19031;51.400;6.770;2023-04-25T11:26:53;2.92;;;1.33;;
32613;SDS011;19031;51.400;6.770;2023-04-25T11:29:21;5.72;;;1.38;;
32613;SDS011;19031;51.400;6.770;2023-04-25T11:31:48;3.38;;;1.10;;
32613;SDS011;19031;51.400;6.770;2023-04-25T11:34:17;6.13;;;1.20;;
32613;SDS011;19031;51.400;6.770;2023-04-25T11:36:44;7.40;;;1.58;;
32613;SDS011;19031;51.400;6.770;2023-04-25T11:39:11;2.67;;;1.45;;
32613;SDS011;19031;51.400;6.770;2023-04-25T11:41:37;2.85;;;0.60;;
32613;SDS011;19031;51.400;6.770;2023-04-25T11:44:03;2.60;;;1.02;;
32613;SDS011;19031;51.400;6.770;2023-04-25T11:46:29;5.60;;;1.23;;
32613;SDS011;19031;51.400;6.770;2023-04-25T11:48:55;4.43;;;0.88;;
32613;SDS011;19031;51.400;6.770;2023-04-25T11:51:22;9.25;;;1.05;;
32613;SDS011;19031;51.400;6.770;2023-04-25T11:53:47;3.30;;;1.15;;
32613;SDS011;19031;51.400;6.770;2023-04-25T11:56:13;2.97;;;0.98;;
32613;SDS011;19031;51.400;6.770;2023-04-25T12:01:27;5.03;;;0.80;;
32613;SDS011;19031;51.400;6.770;2023-04-25T12:03:54;4.40;;;0.98;;
32613;SDS011;19031;51.400;6.770;2023-04-25T12:06:19;3.80;;;1.25;;
32613;SDS011;19031;51.400;6.770;2023-04-25T12:11:26;2.60;;;0.95;;
32613;SDS011;19031;51.400;6.770;2023-04-25T12:13:52;4.03;;;1.05;;
32613;SDS011;19031;51.400;6.770;2023-04-25T12:16:18;1.80;;;0.93;;
32613;SDS011;19031;51.400;6.770;2023-04-25T12:18:44;5.18;;;1.45;;
32613;SDS011;19031;51.400;6.770;2023-04-25T12:21:10;8.77;;;1.23;;
32613;SDS011;19031;51.400;6.770;2023-04-25T12:23:38;2.55;;;0.90;;
32613;SDS011;19031;51.400;6.770;2023-04-25T12:26:04;3.05;;;0.90;;
32613;SDS011;19031;51.400;6.770;2023-04-25T12:28:31;2.38;;;0.80;;
32613;SDS011;19031;51.400;6.770;2023-04-25T12:33:31;3.72;;;0.93;;
32613;SDS011;19031;51.400;6.770;2023-04-25T12:36:01;1.42;;;0.52;;
32613;SDS011;19031;51.400;6.770;2023-04-25T12:38:35;5.45;;;0.73;;
32613;SDS011;19031;51.400;6.770;2023-04-25T12:41:05;2.03;;;0.50;;
32613;SDS011;19031;51.400;6.770;2023-04-25T12:43:31;7.28;;;1.20;;
32613;SDS011;19031;51.400;6.770;2023-04-25T12:45:57;3.88;;;0.88;;
32613;SDS011;19031;51.400;6.770;2023-04-25T12:48:23;3.60;;;1.05;;
32613;SDS011;19031;51.400;6.770;2023-04-25T12:50:49;3.35;;;0.73;;
32613;SDS011;19031;51.400;6.770;2023-04-25T12:53:20;2.20;;;0.55;;
32613;SDS011;19031;51.400;6.770;2023-04-25T12:55:49;1.67;;;0.50;;
32613;SDS011;19031;51.400;6.770;2023-04-25T12:58:15;2.80;;;0.50;;
32613;SDS011;19031;51.400;6.770;2023-04-25T13:00:43;6.40;;;0.70;;
32613;SDS011;19031;51.400;6.770;2023-04-25T13:03:09;3.38;;;0.50;;
32613;SDS011;19031;51.400;6.770;2023-04-25T13:05:36;3.63;;;0.90;;
32613;SDS011;19031;51.400;6.770;2023-04-25T13:08:03;0.85;;;0.52;;
32613;SDS011;19031;51.400;6.770;2023-04-25T13:10:29;7.03;;;1.38;;
32613;SDS011;19031;51.400;6.770;2023-04-25T13:12:54;2.08;;;0.68;;
32613;SDS011;19031;51.400;6.770;2023-04-25T13:15:20;1.27;;;0.55;;
32613;SDS011;19031;51.400;6.770;2023-04-25T13:17:46;2.33;;;0.52;;
32613;SDS011;19031;51.400;6.770;2023-04-25T13:20:12;6.55;;;0.73;;
32613;SDS011;19031;51.400;6.770;2023-04-25T13:22:39;1.95;;;0.75;;
32613;SDS011;19031;51.400;6.770;2023-04-25T13:25:06;3.35;;;0.77;;
32613;SDS011;19031;51.400;6.770;2023-04-25T13:27:33;5.95;;;1.25;;
32613;SDS011;19031;51.400;6.770;2023-04-25T13:30:00;3.42;;;0.60;;
32613;SDS011;19031;51.400;6.770;2023-04-25T13:32:29;1.60;;;1.00;;
32613;SDS011;19031;51.400;6.770;2023-04-25T13:34:55;3.50;;;0.70;;
32613;SDS011;19031;51.400;6.770;2023-04-25T13:37:20;4.90;;;0.73;;
32613;SDS011;19031;51.400;6.770;2023-04-25T13:39:49;1.25;;;0.77;;
32613;SDS011;19031;51.400;6.770;2023-04-25T13:42:14;5.85;;;0.77;;
32613;SDS011;19031;51.400;6.770;2023-04-25T13:44:40;8.82;;;1.45;;
32613;SDS011;19031;51.400;6.770;2023-04-25T13:47:06;5.35;;;1.25;;
32613;SDS011;19031;51.400;6.770;2023-04-25T13:49:32;1.70;;;0.73;;
32613;SDS011;19031;51.400;6.770;2023-04-25T13:51:57;3.38;;;0.77;;
32613;SDS011;19031;51.400;6.770;2023-04-25T13:54:23;1.65;;;0.32;;
32613;SDS011;19031;51.400;6.770;2023-04-25T13:56:48;9.18;;;0.70;;
32613;SDS011;19031;51.400;6.770;2023-04-25T13:59:15;3.00;;;0.65;;
32613;SDS011;19031;51.400;6.770;2023-04-25T14:01:41;2.13;;;0.40;;
32613;SDS011;19031;51.400;6.770;2023-04-25T14:04:06;5.82;;;0.90;;
32613;SDS011;19031;51.400;6.770;2023-04-25T14:06:33;3.10;;;0.47;;
32613;SDS011;19031;51.400;6.770;2023-04-25T14:09:00;1.80;;;0.47;;
32613;SDS011;19031;51.400;6.770;2023-04-25T14:11:26;0.40;;;0.40;;
32613;SDS011;19031;51.400;6.770;2023-04-25T14:13:51;6.13;;;0.73;;
32613;SDS011;19031;51.400;6.770;2023-04-25T14:16:17;2.60;;;0.68;;
32613;SDS011;19031;51.400;6.770;2023-04-25T14:18:42;3.20;;;0.70;;
32613;SDS011;19031;51.400;6.770;2023-04-25T14:21:08;3.28;;;0.40;;
32613;SDS011;19031;51.400;6.770;2023-04-25T14:23:34;3.28;;;0.70;;
32613;SDS011;19031;51.400;6.770;2023-04-25T14:26:00;6.25;;;0.73;;
32613;SDS011;19031;51.400;6.770;2023-04-25T14:28:26;3.70;;;0.60;;
32613;SDS011;19031;51.400;6.770;2023-04-25T14:30:52;3.95;;;0.88;;
32613;SDS011;19031;51.400;6.770;2023-04-25T14:33:17;1.80;;;0.50;;
32613;SDS011;19031;51.400;6.770;2023-04-25T14:35:43;0.65;;;0.35;;
32613;SDS011;19031;51.400;6.770;2023-04-25T14:38:09;3.35;;;0.63;;
32613;SDS011;19031;51.400;6.770;2023-04-25T14:40:34;1.42;;;0.52;;
32613;SDS011;19031;51.400;6.770;2023-04-25T14:43:00;1.00;;;0.47;;
32613;SDS011;19031;51.400;6.770;2023-04-25T14:45:25;2.67;;;0.73;;
32613;SDS011;19031;51.400;6.770;2023-04-25T14:47:51;5.85;;;0.60;;
32613;SDS011;19031;51.400;6.770;2023-04-25T14:50:17;1.02;;;0.50;;
32613;SDS011;19031;51.400;6.770;2023-04-25T14:52:42;4.55;;;0.40;;
32613;SDS011;19031;51.400;6.770;2023-04-25T14:55:09;0.90;;;0.50;;
32613;SDS011;19031;51.400;6.770;2023-04-25T14:57:35;1.17;;;0.40;;
32613;SDS011;19031;51.400;6.770;2023-04-25T15:00:01;2.20;;;0.60;;